sensor_id;sensor_type;location;lat;lon;timestamp;P1;durP1;ratioP1;P2;durP2;ratioP2
15831;SDS011;8016;49.928;9.372;2023-09-19T00:01:32;1.57;;;0.83;;
15831;SDS011;8016;49.928;9.372;2023-09-19T00:03:58;2.20;;;1.07;;
15831;SDS011;8016;49.928;9.372;2023-09-19T00:06:27;1.77;;;0.90;;
15831;SDS011;8016;49.928;9.372;2023-09-19T00:08:56;2.33;;;1.00;;
15831;SDS011;8016;49.928;9.372;2023-09-19T00:11:23;2.03;;;0.90;;
15831;SDS011;8016;49.928;9.372;2023-09-19T00:13:51;2.63;;;1.10;;
15831;SDS011;8016;49.928;9.372;2023-09-19T00:16:17;2.90;;;1.10;;
15831;SDS011;8016;49.928;9.372;2023-09-19T00:18:44;2.47;;;1.10;;
15831;SDS011;8016;49.928;9.372;2023-09-19T00:21:10;1.47;;;0.90;;
15831;SDS011;8016;49.928;9.372;2023-09-19T00:23:37;1.53;;;1.07;;
15831;SDS011;8016;49.928;9.372;2023-09-19T00:26:03;2.23;;;0.83;;
15831;SDS011;8016;49.928;9.372;2023-09-19T00:28:29;2.70;;;1.00;;
15831;SDS011;8016;49.928;9.372;2023-09-19T00:30:56;2.50;;;1.20;;
15831;SDS011;8016;49.928;9.372;2023-09-19T00:33:26;2.53;;;1.07;;
15831;SDS011;8016;49.928;9.372;2023-09-19T00:35:54;3.30;;;1.30;;
15831;SDS011;8016;49.928;9.372;2023-09-19T00:38:20;1.33;;;1.03;;
15831;SDS011;8016;49.928;9.372;2023-09-19T00:40:48;2.07;;;1.10;;
15831;SDS011;8016;49.928;9.372;2023-09-19T00:43:14;2.53;;;0.97;;
15831;SDS011;8016;49.928;9.372;2023-09-19T00:45:42;1.97;;;1.07;;
15831;SDS011;8016;49.928;9.372;2023-09-19T00:48:09;3.40;;;1.10;;
15831;SDS011;8016;49.928;9.372;2023-09-19T00:50:35;1.80;;;1.27;;
15831;SDS011;8016;49.928;9.372;2023-09-19T00:53:02;1.33;;;1.23;;
15831;SDS011;8016;49.928;9.372;2023-09-19T00:55:32;1.90;;;1.13;;
15831;SDS011;8016;49.928;9.372;2023-09-19T00:58:00;3.37;;;1.27;;
15831;SDS011;8016;49.928;9.372;2023-09-19T01:00:26;1.57;;;1.03;;
15831;SDS011;8016;49.928;9.372;2023-09-19T01:02:52;2.03;;;1.20;;
15831;SDS011;8016;49.928;9.372;2023-09-19T01:05:18;1.30;;;1.20;;
15831;SDS011;8016;49.928;9.372;2023-09-19T01:07:44;3.53;;;1.30;;
15831;SDS011;8016;49.928;9.372;2023-09-19T01:10:14;3.10;;;1.30;;
15831;SDS011;8016;49.928;9.372;2023-09-19T01:12:45;3.27;;;1.50;;
15831;SDS011;8016;49.928;9.372;2023-09-19T01:17:46;2.40;;;1.10;;
15831;SDS011;8016;49.928;9.372;2023-09-19T01:22:48;1.83;;;1.10;;
15831;SDS011;8016;49.928;9.372;2023-09-19T01:30:50;1.70;;;1.33;;
15831;SDS011;8016;49.928;9.372;2023-09-19T01:33:19;3.47;;;1.40;;
15831;SDS011;8016;49.928;9.372;2023-09-19T01:35:45;2.83;;;1.33;;
15831;SDS011;8016;49.928;9.372;2023-09-19T01:38:11;2.07;;;1.40;;
15831;SDS011;8016;49.928;9.372;2023-09-19T01:40:40;6.10;;;2.17;;
15831;SDS011;8016;49.928;9.372;2023-09-19T01:43:26;2.20;;;1.30;;
15831;SDS011;8016;49.928;9.372;2023-09-19T01:48:28;3.27;;;1.33;;
15831;SDS011;8016;49.928;9.372;2023-09-19T01:51:03;3.47;;;1.70;;
15831;SDS011;8016;49.928;9.372;2023-09-19T01:55:57;2.57;;;1.70;;
15831;SDS011;8016;49.928;9.372;2023-09-19T01:58:34;2.83;;;1.33;;
15831;SDS011;8016;49.928;9.372;2023-09-19T02:01:08;3.33;;;1.80;;
15831;SDS011;8016;49.928;9.372;2023-09-19T02:03:37;2.10;;;1.60;;
15831;SDS011;8016;49.928;9.372;2023-09-19T02:06:04;2.43;;;1.30;;
15831;SDS011;8016;49.928;9.372;2023-09-19T02:08:36;2.63;;;1.60;;
15831;SDS011;8016;49.928;9.372;2023-09-19T02:11:02;3.87;;;1.63;;
15831;SDS011;8016;49.928;9.372;2023-09-19T02:13:28;2.87;;;1.60;;
15831;SDS011;8016;49.928;9.372;2023-09-19T02:15:56;4.33;;;1.90;;
15831;SDS011;8016;49.928;9.372;2023-09-19T02:18:22;2.63;;;1.57;;
15831;SDS011;8016;49.928;9.372;2023-09-19T02:20:48;2.53;;;1.60;;
15831;SDS011;8016;49.928;9.372;2023-09-19T02:23:16;3.97;;;1.70;;
15831;SDS011;8016;49.928;9.372;2023-09-19T02:25:42;4.27;;;1.77;;
15831;SDS011;8016;49.928;9.372;2023-09-19T02:28:08;2.20;;;1.63;;
15831;SDS011;8016;49.928;9.372;2023-09-19T02:30:34;2.80;;;1.87;;
15831;SDS011;8016;49.928;9.372;2023-09-19T02:33:01;3.87;;;2.47;;
15831;SDS011;8016;49.928;9.372;2023-09-19T02:35:28;2.47;;;1.90;;
15831;SDS011;8016;49.928;9.372;2023-09-19T02:37:58;3.57;;;1.50;;
15831;SDS011;8016;49.928;9.372;2023-09-19T02:40:24;3.20;;;2.17;;
15831;SDS011;8016;49.928;9.372;2023-09-19T02:42:54;3.53;;;1.80;;
15831;SDS011;8016;49.928;9.372;2023-09-19T02:45:21;2.10;;;1.90;;
15831;SDS011;8016;49.928;9.372;2023-09-19T02:47:48;2.33;;;1.70;;
15831;SDS011;8016;49.928;9.372;2023-09-19T02:50:15;3.40;;;1.87;;
15831;SDS011;8016;49.928;9.372;2023-09-19T02:52:44;4.30;;;1.83;;
15831;SDS011;8016;49.928;9.372;2023-09-19T02:55:14;2.40;;;1.90;;
15831;SDS011;8016;49.928;9.372;2023-09-19T02:57:52;2.50;;;2.00;;
15831;SDS011;8016;49.928;9.372;2023-09-19T03:00:20;2.47;;;2.03;;
15831;SDS011;8016;49.928;9.372;2023-09-19T03:02:46;3.13;;;1.87;;
15831;SDS011;8016;49.928;9.372;2023-09-19T03:05:13;1.93;;;1.70;;
15831;SDS011;8016;49.928;9.372;2023-09-19T03:07:39;2.60;;;1.83;;
15831;SDS011;8016;49.928;9.372;2023-09-19T03:10:05;3.47;;;1.97;;
15831;SDS011;8016;49.928;9.372;2023-09-19T03:12:32;3.50;;;1.87;;
15831;SDS011;8016;49.928;9.372;2023-09-19T03:14:59;4.23;;;1.80;;
15831;SDS011;8016;49.928;9.372;2023-09-19T03:17:25;3.07;;;1.87;;
15831;SDS011;8016;49.928;9.372;2023-09-19T03:19:52;2.83;;;1.97;;
15831;SDS011;8016;49.928;9.372;2023-09-19T03:22:19;2.00;;;1.80;;
15831;SDS011;8016;49.928;9.372;2023-09-19T03:24:45;4.00;;;2.30;;
15831;SDS011;8016;49.928;9.372;2023-09-19T03:27:12;3.63;;;2.00;;
15831;SDS011;8016;49.928;9.372;2023-09-19T03:29:41;5.67;;;2.00;;
15831;SDS011;8016;49.928;9.372;2023-09-19T03:32:07;2.60;;;2.00;;
15831;SDS011;8016;49.928;9.372;2023-09-19T03:34:37;2.80;;;1.90;;
15831;SDS011;8016;49.928;9.372;2023-09-19T03:37:07;3.30;;;1.90;;
15831;SDS011;8016;49.928;9.372;2023-09-19T03:39:33;2.00;;;1.80;;
15831;SDS011;8016;49.928;9.372;2023-09-19T03:42:00;4.33;;;1.90;;
15831;SDS011;8016;49.928;9.372;2023-09-19T03:44:28;3.03;;;2.07;;
15831;SDS011;8016;49.928;9.372;2023-09-19T03:46:55;3.90;;;1.87;;
15831;SDS011;8016;49.928;9.372;2023-09-19T03:49:21;2.80;;;2.13;;
15831;SDS011;8016;49.928;9.372;2023-09-19T03:51:47;5.30;;;2.00;;
15831;SDS011;8016;49.928;9.372;2023-09-19T03:54:13;3.20;;;2.03;;
15831;SDS011;8016;49.928;9.372;2023-09-19T03:56:39;2.57;;;2.00;;
15831;SDS011;8016;49.928;9.372;2023-09-19T03:59:05;2.43;;;1.97;;
15831;SDS011;8016;49.928;9.372;2023-09-19T04:01:33;3.40;;;2.10;;
15831;SDS011;8016;49.928;9.372;2023-09-19T04:03:59;5.10;;;1.97;;
15831;SDS011;8016;49.928;9.372;2023-09-19T04:06:33;3.67;;;1.83;;
15831;SDS011;8016;49.928;9.372;2023-09-19T04:09:00;2.07;;;1.83;;
15831;SDS011;8016;49.928;9.372;2023-09-19T04:11:26;3.40;;;2.10;;
15831;SDS011;8016;49.928;9.372;2023-09-19T04:13:52;3.00;;;1.80;;
15831;SDS011;8016;49.928;9.372;2023-09-19T04:16:18;2.10;;;1.90;;
15831;SDS011;8016;49.928;9.372;2023-09-19T04:18:44;5.13;;;2.27;;
15831;SDS011;8016;49.928;9.372;2023-09-19T04:21:11;2.47;;;1.80;;
15831;SDS011;8016;49.928;9.372;2023-09-19T04:23:37;3.70;;;1.97;;
15831;SDS011;8016;49.928;9.372;2023-09-19T04:26:03;3.03;;;2.10;;
15831;SDS011;8016;49.928;9.372;2023-09-19T04:28:29;3.07;;;2.10;;
15831;SDS011;8016;49.928;9.372;2023-09-19T04:30:56;4.93;;;1.90;;
15831;SDS011;8016;49.928;9.372;2023-09-19T04:33:23;2.40;;;1.60;;
15831;SDS011;8016;49.928;9.372;2023-09-19T04:35:52;3.60;;;2.10;;
15831;SDS011;8016;49.928;9.372;2023-09-19T04:38:18;3.47;;;1.90;;
15831;SDS011;8016;49.928;9.372;2023-09-19T04:40:44;3.13;;;1.73;;
15831;SDS011;8016;49.928;9.372;2023-09-19T04:43:10;2.50;;;1.93;;
15831;SDS011;8016;49.928;9.372;2023-09-19T04:45:38;5.20;;;1.90;;
15831;SDS011;8016;49.928;9.372;2023-09-19T04:48:04;2.80;;;1.93;;
15831;SDS011;8016;49.928;9.372;2023-09-19T04:50:31;4.67;;;1.80;;
15831;SDS011;8016;49.928;9.372;2023-09-19T04:52:59;3.33;;;2.00;;
15831;SDS011;8016;49.928;9.372;2023-09-19T04:55:26;2.60;;;2.20;;
15831;SDS011;8016;49.928;9.372;2023-09-19T04:57:52;3.40;;;1.80;;
15831;SDS011;8016;49.928;9.372;2023-09-19T05:00:21;2.73;;;2.07;;
15831;SDS011;8016;49.928;9.372;2023-09-19T05:02:54;2.47;;;1.87;;
15831;SDS011;8016;49.928;9.372;2023-09-19T05:05:21;3.63;;;1.93;;
15831;SDS011;8016;49.928;9.372;2023-09-19T05:07:48;3.40;;;2.30;;
15831;SDS011;8016;49.928;9.372;2023-09-19T05:10:16;2.93;;;2.17;;
15831;SDS011;8016;49.928;9.372;2023-09-19T05:12:52;2.27;;;1.87;;
15831;SDS011;8016;49.928;9.372;2023-09-19T05:15:18;3.40;;;2.47;;
15831;SDS011;8016;49.928;9.372;2023-09-19T05:17:48;3.07;;;2.10;;
15831;SDS011;8016;49.928;9.372;2023-09-19T05:20:15;3.33;;;2.60;;
15831;SDS011;8016;49.928;9.372;2023-09-19T05:22:41;2.80;;;1.93;;
15831;SDS011;8016;49.928;9.372;2023-09-19T05:25:08;2.87;;;2.37;;
15831;SDS011;8016;49.928;9.372;2023-09-19T05:27:34;3.37;;;2.30;;
15831;SDS011;8016;49.928;9.372;2023-09-19T05:30:00;2.53;;;2.33;;
15831;SDS011;8016;49.928;9.372;2023-09-19T05:32:26;2.40;;;1.90;;
15831;SDS011;8016;49.928;9.372;2023-09-19T05:34:52;3.40;;;2.30;;
15831;SDS011;8016;49.928;9.372;2023-09-19T05:37:18;3.40;;;2.23;;
15831;SDS011;8016;49.928;9.372;2023-09-19T05:39:45;5.40;;;2.20;;
15831;SDS011;8016;49.928;9.372;2023-09-19T05:42:11;3.33;;;1.87;;
15831;SDS011;8016;49.928;9.372;2023-09-19T05:44:36;4.30;;;2.53;;
15831;SDS011;8016;49.928;9.372;2023-09-19T05:47:03;2.93;;;2.30;;
15831;SDS011;8016;49.928;9.372;2023-09-19T05:49:29;2.93;;;2.00;;
15831;SDS011;8016;49.928;9.372;2023-09-19T05:51:55;5.23;;;2.50;;
15831;SDS011;8016;49.928;9.372;2023-09-19T05:54:23;3.80;;;2.57;;
15831;SDS011;8016;49.928;9.372;2023-09-19T05:56:49;3.77;;;2.10;;
15831;SDS011;8016;49.928;9.372;2023-09-19T05:59:18;3.77;;;2.27;;
15831;SDS011;8016;49.928;9.372;2023-09-19T06:01:44;4.30;;;2.20;;
15831;SDS011;8016;49.928;9.372;2023-09-19T06:04:12;5.43;;;2.20;;
15831;SDS011;8016;49.928;9.372;2023-09-19T06:06:38;3.47;;;2.23;;
15831;SDS011;8016;49.928;9.372;2023-09-19T06:09:05;5.67;;;2.03;;
15831;SDS011;8016;49.928;9.372;2023-09-19T06:11:33;3.00;;;1.90;;
15831;SDS011;8016;49.928;9.372;2023-09-19T06:14:00;3.30;;;2.30;;
15831;SDS011;8016;49.928;9.372;2023-09-19T06:16:27;5.23;;;2.60;;
15831;SDS011;8016;49.928;9.372;2023-09-19T06:18:53;2.57;;;2.27;;
15831;SDS011;8016;49.928;9.372;2023-09-19T06:21:21;3.20;;;2.23;;
15831;SDS011;8016;49.928;9.372;2023-09-19T06:23:47;2.73;;;2.33;;
15831;SDS011;8016;49.928;9.372;2023-09-19T06:26:13;6.30;;;2.20;;
15831;SDS011;8016;49.928;9.372;2023-09-19T06:28:39;5.93;;;2.50;;
15831;SDS011;8016;49.928;9.372;2023-09-19T06:31:07;4.87;;;2.20;;
15831;SDS011;8016;49.928;9.372;2023-09-19T06:33:35;6.67;;;2.47;;
15831;SDS011;8016;49.928;9.372;2023-09-19T06:36:04;5.93;;;2.50;;
15831;SDS011;8016;49.928;9.372;2023-09-19T06:38:30;6.10;;;2.63;;
15831;SDS011;8016;49.928;9.372;2023-09-19T06:40:57;3.83;;;2.50;;
15831;SDS011;8016;49.928;9.372;2023-09-19T06:43:24;3.33;;;2.10;;
15831;SDS011;8016;49.928;9.372;2023-09-19T06:45:50;4.40;;;2.70;;
15831;SDS011;8016;49.928;9.372;2023-09-19T06:48:16;3.13;;;2.10;;
15831;SDS011;8016;49.928;9.372;2023-09-19T06:50:43;3.97;;;2.37;;
15831;SDS011;8016;49.928;9.372;2023-09-19T06:53:09;4.03;;;2.60;;
15831;SDS011;8016;49.928;9.372;2023-09-19T06:55:35;4.63;;;2.27;;
15831;SDS011;8016;49.928;9.372;2023-09-19T06:58:02;4.07;;;2.60;;
15831;SDS011;8016;49.928;9.372;2023-09-19T07:00:28;3.67;;;2.40;;
15831;SDS011;8016;49.928;9.372;2023-09-19T07:02:57;6.83;;;2.97;;
15831;SDS011;8016;49.928;9.372;2023-09-19T07:05:25;3.63;;;1.90;;
15831;SDS011;8016;49.928;9.372;2023-09-19T07:07:52;3.90;;;2.50;;
15831;SDS011;8016;49.928;9.372;2023-09-19T07:10:19;5.80;;;2.47;;
15831;SDS011;8016;49.928;9.372;2023-09-19T07:12:52;5.37;;;2.43;;
15831;SDS011;8016;49.928;9.372;2023-09-19T07:15:19;3.67;;;2.60;;
15831;SDS011;8016;49.928;9.372;2023-09-19T07:17:46;3.83;;;2.87;;
15831;SDS011;8016;49.928;9.372;2023-09-19T07:20:12;3.60;;;2.17;;
15831;SDS011;8016;49.928;9.372;2023-09-19T07:22:41;5.33;;;2.40;;
15831;SDS011;8016;49.928;9.372;2023-09-19T07:25:07;3.93;;;2.77;;
15831;SDS011;8016;49.928;9.372;2023-09-19T07:27:33;4.70;;;2.20;;
15831;SDS011;8016;49.928;9.372;2023-09-19T07:29:59;4.87;;;2.20;;
15831;SDS011;8016;49.928;9.372;2023-09-19T07:32:25;3.57;;;2.17;;
15831;SDS011;8016;49.928;9.372;2023-09-19T07:34:51;5.60;;;2.20;;
15831;SDS011;8016;49.928;9.372;2023-09-19T07:37:17;5.23;;;2.03;;
15831;SDS011;8016;49.928;9.372;2023-09-19T07:39:43;3.77;;;2.00;;
15831;SDS011;8016;49.928;9.372;2023-09-19T07:42:09;4.07;;;2.00;;
15831;SDS011;8016;49.928;9.372;2023-09-19T07:44:36;3.97;;;2.47;;
15831;SDS011;8016;49.928;9.372;2023-09-19T07:47:03;3.57;;;2.00;;
15831;SDS011;8016;49.928;9.372;2023-09-19T07:49:29;2.40;;;1.90;;
15831;SDS011;8016;49.928;9.372;2023-09-19T07:51:55;4.67;;;2.00;;
15831;SDS011;8016;49.928;9.372;2023-09-19T07:54:22;2.80;;;2.13;;
15831;SDS011;8016;49.928;9.372;2023-09-19T07:56:48;7.87;;;2.80;;
15831;SDS011;8016;49.928;9.372;2023-09-19T07:59:14;4.90;;;2.03;;
15831;SDS011;8016;49.928;9.372;2023-09-19T08:01:41;4.43;;;2.37;;
15831;SDS011;8016;49.928;9.372;2023-09-19T08:04:09;3.80;;;2.40;;
15831;SDS011;8016;49.928;9.372;2023-09-19T08:06:35;4.47;;;1.93;;
15831;SDS011;8016;49.928;9.372;2023-09-19T08:09:03;3.30;;;1.83;;
15831;SDS011;8016;49.928;9.372;2023-09-19T08:11:32;4.87;;;2.10;;
15831;SDS011;8016;49.928;9.372;2023-09-19T08:13:58;2.97;;;2.30;;
15831;SDS011;8016;49.928;9.372;2023-09-19T08:16:25;4.93;;;2.20;;
15831;SDS011;8016;49.928;9.372;2023-09-19T08:18:51;5.13;;;2.00;;
15831;SDS011;8016;49.928;9.372;2023-09-19T08:21:19;3.03;;;1.97;;
15831;SDS011;8016;49.928;9.372;2023-09-19T08:23:45;4.30;;;2.10;;
15831;SDS011;8016;49.928;9.372;2023-09-19T08:26:11;4.57;;;1.93;;
15831;SDS011;8016;49.928;9.372;2023-09-19T08:28:37;2.90;;;1.50;;
15831;SDS011;8016;49.928;9.372;2023-09-19T08:31:06;2.90;;;1.77;;
15831;SDS011;8016;49.928;9.372;2023-09-19T08:33:32;4.07;;;1.73;;
15831;SDS011;8016;49.928;9.372;2023-09-19T08:35:58;5.20;;;2.20;;
15831;SDS011;8016;49.928;9.372;2023-09-19T08:38:24;2.93;;;1.60;;
15831;SDS011;8016;49.928;9.372;2023-09-19T08:40:57;2.77;;;1.80;;
15831;SDS011;8016;49.928;9.372;2023-09-19T08:43:24;4.93;;;1.73;;
15831;SDS011;8016;49.928;9.372;2023-09-19T08:45:50;2.17;;;1.53;;
15831;SDS011;8016;49.928;9.372;2023-09-19T08:48:26;4.77;;;1.93;;
15831;SDS011;8016;49.928;9.372;2023-09-19T08:53:53;8.57;;;2.53;;
15831;SDS011;8016;49.928;9.372;2023-09-19T08:56:20;5.80;;;2.40;;
15831;SDS011;8016;49.928;9.372;2023-09-19T08:58:49;5.23;;;1.73;;
15831;SDS011;8016;49.928;9.372;2023-09-19T09:01:18;6.50;;;2.80;;
15831;SDS011;8016;49.928;9.372;2023-09-19T09:03:49;5.07;;;1.97;;
15831;SDS011;8016;49.928;9.372;2023-09-19T09:06:17;4.87;;;1.70;;
15831;SDS011;8016;49.928;9.372;2023-09-19T09:08:43;4.63;;;1.50;;
15831;SDS011;8016;49.928;9.372;2023-09-19T09:11:10;6.87;;;1.80;;
15831;SDS011;8016;49.928;9.372;2023-09-19T09:13:36;4.27;;;1.57;;
15831;SDS011;8016;49.928;9.372;2023-09-19T09:16:04;5.93;;;1.80;;
15831;SDS011;8016;49.928;9.372;2023-09-19T09:18:30;2.97;;;1.77;;
15831;SDS011;8016;49.928;9.372;2023-09-19T09:20:56;3.37;;;1.70;;
15831;SDS011;8016;49.928;9.372;2023-09-19T09:23:22;3.80;;;1.93;;
15831;SDS011;8016;49.928;9.372;2023-09-19T09:25:49;4.30;;;1.67;;
15831;SDS011;8016;49.928;9.372;2023-09-19T09:28:20;4.30;;;1.80;;
15831;SDS011;8016;49.928;9.372;2023-09-19T09:30:47;4.27;;;2.23;;
15831;SDS011;8016;49.928;9.372;2023-09-19T09:33:13;4.27;;;2.00;;
15831;SDS011;8016;49.928;9.372;2023-09-19T09:35:53;4.85;;;1.90;;
15831;SDS011;8016;49.928;9.372;2023-09-19T09:38:25;4.60;;;1.73;;
15831;SDS011;8016;49.928;9.372;2023-09-19T09:40:57;3.77;;;1.80;;
15831;SDS011;8016;49.928;9.372;2023-09-19T09:48:58;6.93;;;1.73;;
15831;SDS011;8016;49.928;9.372;2023-09-19T09:52:03;4.37;;;1.83;;
15831;SDS011;8016;49.928;9.372;2023-09-19T09:54:34;6.47;;;1.70;;
15831;SDS011;8016;49.928;9.372;2023-09-19T09:57:04;5.60;;;1.70;;
15831;SDS011;8016;49.928;9.372;2023-09-19T09:59:49;5.10;;;1.70;;
15831;SDS011;8016;49.928;9.372;2023-09-19T10:02:16;6.30;;;1.90;;
15831;SDS011;8016;49.928;9.372;2023-09-19T10:04:49;6.30;;;2.07;;
15831;SDS011;8016;49.928;9.372;2023-09-19T10:07:39;5.73;;;2.00;;
15831;SDS011;8016;49.928;9.372;2023-09-19T10:10:29;6.10;;;2.10;;
15831;SDS011;8016;49.928;9.372;2023-09-19T10:13:03;3.30;;;1.90;;
15831;SDS011;8016;49.928;9.372;2023-09-19T10:15:33;5.20;;;1.90;;
15831;SDS011;8016;49.928;9.372;2023-09-19T10:18:01;7.40;;;2.23;;
15831;SDS011;8016;49.928;9.372;2023-09-19T10:20:29;3.87;;;2.00;;
15831;SDS011;8016;49.928;9.372;2023-09-19T10:23:05;4.93;;;2.07;;
15831;SDS011;8016;49.928;9.372;2023-09-19T10:25:36;4.67;;;1.90;;
15831;SDS011;8016;49.928;9.372;2023-09-19T10:28:02;2.87;;;1.80;;
15831;SDS011;8016;49.928;9.372;2023-09-19T10:30:28;5.37;;;2.07;;
15831;SDS011;8016;49.928;9.372;2023-09-19T10:33:02;3.93;;;1.67;;
15831;SDS011;8016;49.928;9.372;2023-09-19T10:35:30;2.90;;;1.70;;
15831;SDS011;8016;49.928;9.372;2023-09-19T10:37:59;5.87;;;1.73;;
15831;SDS011;8016;49.928;9.372;2023-09-19T10:40:26;2.20;;;1.73;;
15831;SDS011;8016;49.928;9.372;2023-09-19T10:42:58;4.40;;;1.80;;
15831;SDS011;8016;49.928;9.372;2023-09-19T10:45:26;3.50;;;1.73;;
15831;SDS011;8016;49.928;9.372;2023-09-19T10:47:54;3.90;;;1.80;;
15831;SDS011;8016;49.928;9.372;2023-09-19T10:50:21;4.50;;;1.80;;
15831;SDS011;8016;49.928;9.372;2023-09-19T10:52:47;5.60;;;1.63;;
15831;SDS011;8016;49.928;9.372;2023-09-19T10:55:17;3.30;;;2.13;;
15831;SDS011;8016;49.928;9.372;2023-09-19T10:57:44;4.63;;;1.63;;
15831;SDS011;8016;49.928;9.372;2023-09-19T11:00:11;5.17;;;1.93;;
15831;SDS011;8016;49.928;9.372;2023-09-19T11:05:34;3.83;;;1.90;;
15831;SDS011;8016;49.928;9.372;2023-09-19T11:08:00;4.28;;;2.00;;
15831;SDS011;8016;49.928;9.372;2023-09-19T11:10:48;4.37;;;1.80;;
15831;SDS011;8016;49.928;9.372;2023-09-19T11:24:27;5.50;;;1.97;;
15831;SDS011;8016;49.928;9.372;2023-09-19T11:27:12;5.00;;;2.10;;
15831;SDS011;8016;49.928;9.372;2023-09-19T11:29:39;5.73;;;1.57;;
15831;SDS011;8016;49.928;9.372;2023-09-19T11:32:05;6.07;;;1.70;;
15831;SDS011;8016;49.928;9.372;2023-09-19T11:39:36;6.90;;;2.03;;
15831;SDS011;8016;49.928;9.372;2023-09-19T11:42:40;4.43;;;1.67;;
15831;SDS011;8016;49.928;9.372;2023-09-19T11:44:51;3.23;;;1.43;;
15831;SDS011;8016;49.928;9.372;2023-09-19T11:47:21;3.50;;;1.70;;
15831;SDS011;8016;49.928;9.372;2023-09-19T11:49:49;2.97;;;1.77;;
15831;SDS011;8016;49.928;9.372;2023-09-19T11:52:21;3.33;;;1.50;;
15831;SDS011;8016;49.928;9.372;2023-09-19T11:54:55;5.93;;;1.87;;
15831;SDS011;8016;49.928;9.372;2023-09-19T11:57:22;5.30;;;2.00;;
15831;SDS011;8016;49.928;9.372;2023-09-19T11:59:48;4.67;;;1.77;;
15831;SDS011;8016;49.928;9.372;2023-09-19T12:02:20;3.80;;;1.57;;
15831;SDS011;8016;49.928;9.372;2023-09-19T12:04:54;4.73;;;1.53;;
15831;SDS011;8016;49.928;9.372;2023-09-19T12:07:20;4.83;;;1.50;;
15831;SDS011;8016;49.928;9.372;2023-09-19T12:09:50;3.53;;;1.83;;
15831;SDS011;8016;49.928;9.372;2023-09-19T12:12:28;2.33;;;1.77;;
15831;SDS011;8016;49.928;9.372;2023-09-19T12:14:58;3.07;;;1.63;;
15831;SDS011;8016;49.928;9.372;2023-09-19T12:17:35;6.20;;;1.77;;
15831;SDS011;8016;49.928;9.372;2023-09-19T12:20:01;3.50;;;1.90;;
15831;SDS011;8016;49.928;9.372;2023-09-19T12:22:43;3.57;;;1.90;;
15831;SDS011;8016;49.928;9.372;2023-09-19T12:25:10;3.57;;;1.53;;
15831;SDS011;8016;49.928;9.372;2023-09-19T12:27:46;5.27;;;1.80;;
15831;SDS011;8016;49.928;9.372;2023-09-19T12:30:13;6.60;;;2.53;;
15831;SDS011;8016;49.928;9.372;2023-09-19T12:32:40;4.67;;;1.53;;
15831;SDS011;8016;49.928;9.372;2023-09-19T12:35:07;4.47;;;2.03;;
15831;SDS011;8016;49.928;9.372;2023-09-19T12:37:35;3.80;;;1.97;;
15831;SDS011;8016;49.928;9.372;2023-09-19T12:40:05;5.23;;;2.40;;
15831;SDS011;8016;49.928;9.372;2023-09-19T12:42:47;4.23;;;1.70;;
15831;SDS011;8016;49.928;9.372;2023-09-19T12:45:13;3.67;;;1.90;;
15831;SDS011;8016;49.928;9.372;2023-09-19T12:47:41;6.13;;;2.23;;
15831;SDS011;8016;49.928;9.372;2023-09-19T12:50:27;3.73;;;1.60;;
15831;SDS011;8016;49.928;9.372;2023-09-19T12:52:54;3.33;;;1.90;;
15831;SDS011;8016;49.928;9.372;2023-09-19T12:55:25;4.93;;;1.90;;
15831;SDS011;8016;49.928;9.372;2023-09-19T13:03:13;3.77;;;1.70;;
15831;SDS011;8016;49.928;9.372;2023-09-19T13:05:58;3.90;;;1.53;;
15831;SDS011;8016;49.928;9.372;2023-09-19T13:08:32;4.40;;;1.77;;
15831;SDS011;8016;49.928;9.372;2023-09-19T13:11:09;4.73;;;1.90;;
15831;SDS011;8016;49.928;9.372;2023-09-19T13:13:39;4.70;;;1.60;;
15831;SDS011;8016;49.928;9.372;2023-09-19T13:16:06;4.03;;;2.07;;
15831;SDS011;8016;49.928;9.372;2023-09-19T13:18:46;4.90;;;1.63;;
15831;SDS011;8016;49.928;9.372;2023-09-19T13:21:13;3.13;;;1.57;;
15831;SDS011;8016;49.928;9.372;2023-09-19T13:23:49;7.63;;;1.53;;
15831;SDS011;8016;49.928;9.372;2023-09-19T13:26:15;3.30;;;1.60;;
15831;SDS011;8016;49.928;9.372;2023-09-19T13:28:41;3.03;;;1.70;;
15831;SDS011;8016;49.928;9.372;2023-09-19T13:31:09;4.73;;;1.67;;
15831;SDS011;8016;49.928;9.372;2023-09-19T13:33:45;3.03;;;1.77;;
15831;SDS011;8016;49.928;9.372;2023-09-19T13:36:11;2.70;;;1.50;;
15831;SDS011;8016;49.928;9.372;2023-09-19T13:38:41;3.77;;;1.43;;
15831;SDS011;8016;49.928;9.372;2023-09-19T13:41:08;3.17;;;1.57;;
15831;SDS011;8016;49.928;9.372;2023-09-19T13:43:35;3.87;;;1.40;;
15831;SDS011;8016;49.928;9.372;2023-09-19T13:46:01;2.80;;;1.57;;
15831;SDS011;8016;49.928;9.372;2023-09-19T13:48:27;4.70;;;1.80;;
15831;SDS011;8016;49.928;9.372;2023-09-19T13:50:55;3.83;;;1.73;;
15831;SDS011;8016;49.928;9.372;2023-09-19T13:53:21;3.83;;;1.57;;
15831;SDS011;8016;49.928;9.372;2023-09-19T13:55:47;4.50;;;1.30;;
15831;SDS011;8016;49.928;9.372;2023-09-19T13:58:16;2.43;;;1.37;;
15831;SDS011;8016;49.928;9.372;2023-09-19T14:00:42;5.30;;;1.50;;
15831;SDS011;8016;49.928;9.372;2023-09-19T14:03:08;4.17;;;1.33;;
15831;SDS011;8016;49.928;9.372;2023-09-19T14:05:35;5.33;;;1.73;;
15831;SDS011;8016;49.928;9.372;2023-09-19T14:08:02;4.67;;;1.90;;
15831;SDS011;8016;49.928;9.372;2023-09-19T14:10:28;4.10;;;1.43;;
15831;SDS011;8016;49.928;9.372;2023-09-19T14:12:56;6.20;;;1.57;;
15831;SDS011;8016;49.928;9.372;2023-09-19T14:15:24;3.63;;;1.27;;
15831;SDS011;8016;49.928;9.372;2023-09-19T14:17:54;3.87;;;1.33;;
15831;SDS011;8016;49.928;9.372;2023-09-19T14:20:21;3.60;;;1.60;;
15831;SDS011;8016;49.928;9.372;2023-09-19T14:22:47;4.10;;;1.53;;
15831;SDS011;8016;49.928;9.372;2023-09-19T14:25:13;3.13;;;1.50;;
15831;SDS011;8016;49.928;9.372;2023-09-19T14:27:39;5.13;;;1.47;;
15831;SDS011;8016;49.928;9.372;2023-09-19T14:30:06;2.47;;;1.30;;
15831;SDS011;8016;49.928;9.372;2023-09-19T14:32:34;4.43;;;1.47;;
15831;SDS011;8016;49.928;9.372;2023-09-19T14:35:01;1.83;;;1.20;;
15831;SDS011;8016;49.928;9.372;2023-09-19T14:37:27;4.13;;;1.30;;
15831;SDS011;8016;49.928;9.372;2023-09-19T14:39:53;2.83;;;1.33;;
15831;SDS011;8016;49.928;9.372;2023-09-19T14:42:19;4.00;;;1.90;;
15831;SDS011;8016;49.928;9.372;2023-09-19T14:44:45;3.53;;;1.40;;
15831;SDS011;8016;49.928;9.372;2023-09-19T14:47:13;5.00;;;1.50;;
15831;SDS011;8016;49.928;9.372;2023-09-19T14:49:39;2.77;;;1.47;;
15831;SDS011;8016;49.928;9.372;2023-09-19T14:52:09;2.47;;;1.33;;
15831;SDS011;8016;49.928;9.372;2023-09-19T14:54:35;5.87;;;1.60;;
15831;SDS011;8016;49.928;9.372;2023-09-19T14:57:03;4.83;;;1.87;;
15831;SDS011;8016;49.928;9.372;2023-09-19T14:59:32;7.33;;;2.30;;
15831;SDS011;8016;49.928;9.372;2023-09-19T15:01:59;9.47;;;2.90;;
15831;SDS011;8016;49.928;9.372;2023-09-19T15:04:25;4.63;;;1.60;;
15831;SDS011;8016;49.928;9.372;2023-09-19T15:06:51;2.20;;;1.33;;
15831;SDS011;8016;49.928;9.372;2023-09-19T15:09:20;4.83;;;1.43;;
15831;SDS011;8016;49.928;9.372;2023-09-19T15:11:46;1.83;;;1.30;;
15831;SDS011;8016;49.928;9.372;2023-09-19T15:14:12;3.20;;;1.50;;
15831;SDS011;8016;49.928;9.372;2023-09-19T15:16:38;1.97;;;1.37;;
15831;SDS011;8016;49.928;9.372;2023-09-19T15:19:05;4.90;;;2.40;;
15831;SDS011;8016;49.928;9.372;2023-09-19T15:21:32;2.00;;;1.40;;
15831;SDS011;8016;49.928;9.372;2023-09-19T15:23:58;2.73;;;1.70;;
15831;SDS011;8016;49.928;9.372;2023-09-19T15:26:24;2.73;;;1.40;;
15831;SDS011;8016;49.928;9.372;2023-09-19T15:28:50;3.27;;;1.57;;
15831;SDS011;8016;49.928;9.372;2023-09-19T15:31:16;4.43;;;1.67;;
15831;SDS011;8016;49.928;9.372;2023-09-19T15:33:42;2.77;;;1.50;;
15831;SDS011;8016;49.928;9.372;2023-09-19T15:36:10;2.70;;;1.47;;
15831;SDS011;8016;49.928;9.372;2023-09-19T15:41:22;2.60;;;1.30;;
15831;SDS011;8016;49.928;9.372;2023-09-19T15:43:48;3.40;;;1.50;;
15831;SDS011;8016;49.928;9.372;2023-09-19T15:46:14;2.67;;;1.20;;
15831;SDS011;8016;49.928;9.372;2023-09-19T15:48:40;2.13;;;1.20;;
15831;SDS011;8016;49.928;9.372;2023-09-19T15:51:06;3.30;;;1.43;;
15831;SDS011;8016;49.928;9.372;2023-09-19T15:53:43;2.87;;;1.40;;
15831;SDS011;8016;49.928;9.372;2023-09-19T15:56:13;2.73;;;1.00;;
15831;SDS011;8016;49.928;9.372;2023-09-19T15:58:39;2.27;;;1.10;;